Time;durP1;ratioP1;P1;durP2;ratioP2;P2;SDS_P1;SDS_P2;PMS_P1;PMS_P2;Temp;Humidity;BMP_temperature;BMP_pressure;BME280_temperature;BME280_humidity;BME280_pressure;Samples;Min_cycle;Max_cycle;Signal;HPM_P1;HPM_P2
2023/05/15 00:00:26;;;;;;;;;;;;;;;9.45;100.00;96279.34;5054904;28;19925;-64
2023/05/15 00:02:52;;;;;;;;;;;;;;;9.48;100.00;96277.84;5043883;28;19917;-65
2023/05/15 00:05:17;;;;;;;;;;;;;;;9.50;100.00;96272.78;5038963;28;19932;-65
2023/05/15 00:07:42;;;;;;;;;;;;;;;9.58;100.00;96277.19;5043731;28;19963;-63
2023/05/15 00:10:08;;;;;;;;;;;;;;;9.56;100.00;96282.22;5039468;28;20400;-64
2023/05/15 00:12:33;;;;;;;;;;;;;;;9.57;100.00;96284.59;5044193;28;19924;-62
2023/05/15 00:14:58;;;;;;;;;;;;;;;9.64;100.00;96272.97;5043022;28;19921;-64
2023/05/15 00:17:24;;;;;;;;;;;;;;;9.64;100.00;96280.41;5038985;28;19970;-64
2023/05/15 00:19:49;;;;;;;;;;;;;;;9.63;100.00;96273.34;5044481;28;20015;-64
2023/05/15 00:22:15;;;;;;;;;;;;;;;9.57;100.00;96268.19;5039199;28;20373;-63
2023/05/15 00:24:40;;;;;;;;;;;;;;;9.50;100.00;96264.56;5043209;28;19921;-66
2023/05/15 00:27:05;;;;;;;;;;;;;;;9.40;100.00;96262.47;5038926;28;19960;-65
2023/05/15 00:29:31;;;;;;;;;;;;;;;9.24;100.00;96266.19;5043438;28;19917;-64
2023/05/15 00:31:56;;;;;;;;;;;;;;;9.26;100.00;96269.34;5043941;28;20748;-62
2023/05/15 00:34:21;;;;;;;;;;;;;;;9.23;100.00;96266.53;5037764;28;21128;-63
2023/05/15 00:36:47;;;;;;;;;;;;;;;9.18;100.00;96265.72;5041420;28;20004;-64
2023/05/15 00:39:12;;;;;;;;;;;;;;;9.21;100.00;96257.94;5037076;28;19921;-63
2023/05/15 00:41:39;;;;;;;;;;;;;;;9.26;100.00;96268.56;5044640;23;19936;-67
2023/05/15 00:44:05;;;;;;;;;;;;;;;9.24;100.00;96268.09;5019119;28;19924;-68
2023/05/15 00:46:31;;;;;;;;;;;;;;;9.22;100.00;96268.50;5023213;28;20301;-67
2023/05/15 00:48:56;;;;;;;;;;;;;;;9.01;100.00;96265.44;5022530;28;19917;-67
2023/05/15 00:51:22;;;;;;;;;;;;;;;8.88;100.00;96264.84;5018079;28;19917;-67
2023/05/15 00:53:49;;;;;;;;;;;;;;;8.81;100.00;96270.97;5023966;28;19928;-67
2023/05/15 00:56:15;;;;;;;;;;;;;;;8.83;100.00;96271.41;5017885;28;19964;-67
2023/05/15 00:58:41;;;;;;;;;;;;;;;8.83;100.00;96268.66;5023025;28;19921;-66
2023/05/15 01:01:06;;;;;;;;;;;;;;;8.91;100.00;96272.28;5017684;28;19986;-67
2023/05/15 01:03:32;;;;;;;;;;;;;;;8.98;100.00;96275.16;5019639;28;20008;-67
2023/05/15 01:05:57;;;;;;;;;;;;;;;8.88;100.00;96275.78;5002131;28;20365;-67
2023/05/15 01:08:45;;;;;;;;;;;;;;;8.76;100.00;96274.78;5000132;28;20543;-67
2023/05/15 01:11:14;;;;;;;;;;;;;;;8.73;100.00;96270.09;5000194;28;19928;-66
2023/05/15 01:13:40;;;;;;;;;;;;;;;8.66;100.00;96269.97;5004106;28;20616;-67
2023/05/15 01:16:05;;;;;;;;;;;;;;;8.69;100.00;96266.50;5002971;28;19956;-66
2023/05/15 01:18:31;;;;;;;;;;;;;;;8.76;100.00;96265.81;5004023;28;19924;-68
2023/05/15 01:21:02;;;;;;;;;;;;;;;8.85;100.00;96268.31;5002773;28;19918;-67
2023/05/15 01:23:27;;;;;;;;;;;;;;;8.93;100.00;96261.78;4999602;28;19940;-65
2023/05/15 01:26:16;;;;;;;;;;;;;;;9.04;100.00;96264.69;5003136;28;20370;-66
2023/05/15 01:28:45;;;;;;;;;;;;;;;9.01;100.00;96257.25;5001041;28;19964;-67
2023/05/15 01:31:15;;;;;;;;;;;;;;;8.92;100.00;96257.50;4999185;28;19926;-66
2023/05/15 01:33:42;;;;;;;;;;;;;;;8.86;100.00;96262.50;5002150;28;19925;-67
2023/05/15 01:36:13;;;;;;;;;;;;;;;8.80;100.00;96263.94;4998708;28;19918;-66
2023/05/15 01:38:42;;;;;;;;;;;;;;;8.83;100.00;96262.44;5003694;28;19924;-68
2023/05/15 01:41:10;;;;;;;;;;;;;;;8.97;100.00;96260.72;4999097;28;19921;-64
2023/05/15 01:43:37;;;;;;;;;;;;;;;8.90;100.00;96265.28;5000150;28;19921;-68
2023/05/15 01:46:04;;;;;;;;;;;;;;;8.82;100.00;96263.56;5000956;28;19921;-69
2023/05/15 01:48:32;;;;;;;;;;;;;;;8.88;100.00;96256.66;5002211;28;19924;-68
2023/05/15 01:51:00;;;;;;;;;;;;;;;8.98;100.00;96259.56;5003035;28;19924;-69
2023/05/15 01:53:26;;;;;;;;;;;;;;;9.09;100.00;96248.00;4998417;28;19917;-69
2023/05/15 01:55:52;;;;;;;;;;;;;;;9.14;100.00;96256.66;5003039;28;20460;-69
2023/05/15 01:58:17;;;;;;;;;;;;;;;9.17;100.00;96253.19;4997992;28;19926;-69
2023/05/15 02:00:43;;;;;;;;;;;;;;;9.21;100.00;96258.72;5003314;28;19924;-66
2023/05/15 02:03:09;;;;;;;;;;;;;;;9.19;100.00;96252.84;4998888;28;20366;-67
2023/05/15 02:05:34;;;;;;;;;;;;;;;9.02;100.00;96251.41;5002370;28;19965;-69
2023/05/15 02:08:01;;;;;;;;;;;;;;;8.90;100.00;96259.81;5003000;28;20432;-66
2023/05/15 02:10:27;;;;;;;;;;;;;;;8.86;100.00;96253.47;5006893;28;19918;-69
2023/05/15 02:12:53;;;;;;;;;;;;;;;8.90;100.00;96260.59;5021029;28;19922;-68
2023/05/15 02:15:19;;;;;;;;;;;;;;;8.90;100.00;96251.63;5014886;28;19922;-67
2023/05/15 02:17:45;;;;;;;;;;;;;;;8.95;100.00;96252.09;5017478;28;19922;-67
2023/05/15 02:20:10;;;;;;;;;;;;;;;8.89;100.00;96252.75;4998732;28;19922;-64
2023/05/15 02:22:36;;;;;;;;;;;;;;;8.85;100.00;96252.72;5011780;28;19918;-67
2023/05/15 02:25:01;;;;;;;;;;;;;;;8.92;100.00;96243.84;5018859;28;19921;-67
2023/05/15 02:27:27;;;;;;;;;;;;;;;8.69;100.00;96244.66;5017670;28;19925;-67
2023/05/15 02:30:12;;;;;;;;;;;;;;;8.55;100.00;96245.22;5015665;28;19917;-65
2023/05/15 02:32:40;;;;;;;;;;;;;;;8.66;100.00;96239.94;5003741;28;20369;-65
2023/05/15 02:35:06;;;;;;;;;;;;;;;8.72;100.00;96240.41;4998065;28;19918;-66
2023/05/15 02:37:33;;;;;;;;;;;;;;;8.73;100.00;96245.50;5002154;28;20285;-66
2023/05/15 02:39:59;;;;;;;;;;;;;;;8.72;100.00;96241.19;5002445;28;19921;-67
2023/05/15 02:42:28;;;;;;;;;;;;;;;8.67;100.00;96243.44;4998771;28;20497;-65
2023/05/15 02:44:54;;;;;;;;;;;;;;;8.57;100.00;96244.84;5001961;28;19925;-66
2023/05/15 02:47:21;;;;;;;;;;;;;;;8.60;100.00;96238.66;4996578;28;19917;-68
2023/05/15 02:49:47;;;;;;;;;;;;;;;8.56;100.00;96237.81;5002062;28;19924;-67
2023/05/15 02:52:12;;;;;;;;;;;;;;;8.56;100.00;96229.63;4995634;28;19918;-68
2023/05/15 02:54:38;;;;;;;;;;;;;;;8.35;100.00;96232.75;5003751;28;20005;-68
2023/05/15 02:57:03;;;;;;;;;;;;;;;8.13;100.00;96229.63;4998040;28;19918;-68
2023/05/15 02:59:28;;;;;;;;;;;;;;;7.99;100.00;96232.88;5000884;28;20464;-67
2023/05/15 03:01:53;;;;;;;;;;;;;;;7.87;100.00;96243.97;5000177;28;19918;-67
2023/05/15 03:04:19;;;;;;;;;;;;;;;7.78;100.00;96244.16;4998367;28;19924;-65
2023/05/15 03:06:44;;;;;;;;;;;;;;;7.77;100.00;96242.59;5001787;28;19965;-69
2023/05/15 03:09:10;;;;;;;;;;;;;;;7.88;100.00;96228.38;4994667;28;20297;-66
2023/05/15 03:11:35;;;;;;;;;;;;;;;7.91;100.00;96235.84;5002689;28;19921;-68
2023/05/15 03:14:00;;;;;;;;;;;;;;;8.03;100.00;96225.56;4995120;28;19929;-68
2023/05/15 03:16:27;;;;;;;;;;;;;;;8.06;100.00;96223.25;5000111;28;20381;-68
2023/05/15 03:18:52;;;;;;;;;;;;;;;8.14;100.00;96220.31;5005891;28;19924;-67
2023/05/15 03:21:18;;;;;;;;;;;;;;;7.92;100.00;96219.09;5000814;28;20289;-68
2023/05/15 03:23:43;;;;;;;;;;;;;;;7.80;100.00;96230.19;5005962;28;20329;-66
2023/05/15 03:26:08;;;;;;;;;;;;;;;7.69;100.00;96229.97;5000539;28;19922;-67
2023/05/15 03:28:34;;;;;;;;;;;;;;;7.62;100.00;96224.38;5005159;28;19918;-66
2023/05/15 03:30:59;;;;;;;;;;;;;;;7.59;100.00;96233.25;5005478;28;19917;-67
2023/05/15 03:33:24;;;;;;;;;;;;;;;7.54;100.00;96231.59;5000448;28;19918;-69
2023/05/15 03:35:51;;;;;;;;;;;;;;;7.54;100.00;96239.00;5005939;28;19964;-67
2023/05/15 03:38:16;;;;;;;;;;;;;;;7.49;100.00;96236.56;5001169;28;19956;-67
2023/05/15 03:40:42;;;;;;;;;;;;;;;7.63;100.00;96236.84;5005453;28;20012;-66
2023/05/15 03:43:07;;;;;;;;;;;;;;;7.76;100.00;96237.47;5000681;28;19925;-65
2023/05/15 03:45:34;;;;;;;;;;;;;;;7.86;100.00;96239.63;5005327;28;19921;-66
2023/05/15 03:47:59;;;;;;;;;;;;;;;7.91;100.00;96238.56;5004336;28;19917;-69
2023/05/15 03:50:24;;;;;;;;;;;;;;;7.87;100.00;96251.31;5001507;28;19924;-68
2023/05/15 03:52:51;;;;;;;;;;;;;;;7.90;100.00;96245.16;5005554;28;19957;-66
2023/05/15 03:55:16;;;;;;;;;;;;;;;7.98;100.00;96244.16;5000591;28;20342;-66
2023/05/15 03:57:42;;;;;;;;;;;;;;;8.23;100.00;96239.94;5005148;28;19949;-68
2023/05/15 04:00:10;;;;;;;;;;;;;;;8.34;100.00;96240.16;4998598;28;19922;-69
2023/05/15 04:02:36;;;;;;;;;;;;;;;8.41;100.00;96229.34;5004635;28;19921;-67
2023/05/15 04:05:05;;;;;;;;;;;;;;;8.46;100.00;96230.22;5004741;28;19922;-68
2023/05/15 04:07:31;;;;;;;;;;;;;;;8.36;100.00;96237.06;5004495;28;19928;-66
2023/05/15 04:10:00;;;;;;;;;;;;;;;8.29;100.00;96232.25;5005195;28;20016;-66
2023/05/15 04:12:29;;;;;;;;;;;;;;;8.35;100.00;96244.44;5000941;28;20004;-69
2023/05/15 04:14:57;;;;;;;;;;;;;;;8.33;100.00;96249.47;5005709;28;20374;-67
2023/05/15 04:17:23;;;;;;;;;;;;;;;8.45;100.00;96242.31;4998897;28;20342;-67
2023/05/15 04:19:49;;;;;;;;;;;;;;;8.65;100.00;96246.53;5003984;28;20382;-69
2023/05/15 04:22:14;;;;;;;;;;;;;;;8.77;100.00;96245.56;5002454;28;19925;-68
2023/05/15 04:24:40;;;;;;;;;;;;;;;8.66;100.00;96248.13;5007440;28;19926;-67
2023/05/15 04:27:05;;;;;;;;;;;;;;;8.68;100.00;96251.28;4999846;28;19918;-69
2023/05/15 04:29:31;;;;;;;;;;;;;;;8.80;100.00;96242.91;5004777;28;19972;-67
2023/05/15 04:31:56;;;;;;;;;;;;;;;8.83;100.00;96249.56;5003688;28;19918;-68
2023/05/15 04:34:21;;;;;;;;;;;;;;;8.78;100.00;96256.09;4999680;28;20473;-68
2023/05/15 04:36:48;;;;;;;;;;;;;;;8.79;100.00;96246.78;5005165;28;19924;-66
2023/05/15 04:39:13;;;;;;;;;;;;;;;8.77;100.00;96254.53;5000480;28;20010;-68
2023/05/15 04:41:39;;;;;;;;;;;;;;;8.78;100.00;96258.06;5005008;28;19964;-68
2023/05/15 04:44:05;;;;;;;;;;;;;;;8.80;100.00;96261.19;5000259;28;19937;-67
2023/05/15 04:46:33;;;;;;;;;;;;;;;8.92;100.00;96255.56;5004624;28;19925;-68
2023/05/15 04:48:58;;;;;;;;;;;;;;;9.07;100.00;96256.53;5004031;28;19918;-67
2023/05/15 04:51:24;;;;;;;;;;;;;;;9.29;100.00;96267.78;4999122;28;20236;-67
2023/05/15 04:53:49;;;;;;;;;;;;;;;9.40;100.00;96259.75;5009095;28;19918;-67
2023/05/15 04:56:14;;;;;;;;;;;;;;;9.54;100.00;96274.41;5005460;28;19918;-69
2023/05/15 04:58:39;;;;;;;;;;;;;;;9.64;100.00;96269.47;5022359;28;19928;-68
2023/05/15 05:01:05;;;;;;;;;;;;;;;9.58;100.00;96269.00;4998985;28;19918;-67
2023/05/15 05:03:30;;;;;;;;;;;;;;;9.61;100.00;96275.66;5018818;28;19924;-67
2023/05/15 05:05:55;;;;;;;;;;;;;;;9.69;100.00;96275.38;4999578;28;19960;-68
2023/05/15 05:08:20;;;;;;;;;;;;;;;9.89;100.00;96272.50;4999227;28;19921;-68
2023/05/15 05:10:46;;;;;;;;;;;;;;;9.95;100.00;96281.94;5004929;28;20453;-69
2023/05/15 05:13:11;;;;;;;;;;;;;;;9.95;100.00;96276.47;5000153;28;19921;-66
2023/05/15 05:15:36;;;;;;;;;;;;;;;10.04;100.00;96276.97;4999014;28;19932;-67
2023/05/15 05:18:02;;;;;;;;;;;;;;;10.05;100.00;96280.50;4996433;28;19928;-67
2023/05/15 05:20:27;;;;;;;;;;;;;;;10.21;100.00;96283.00;5001622;28;19921;-69
2023/05/15 05:22:52;;;;;;;;;;;;;;;10.18;100.00;96284.56;5004276;28;19924;-66
2023/05/15 05:25:18;;;;;;;;;;;;;;;10.23;100.00;96284.22;4981444;28;20383;-66
2023/05/15 05:27:43;;;;;;;;;;;;;;;10.17;100.00;96284.94;4995886;28;20496;-67
2023/05/15 05:30:09;;;;;;;;;;;;;;;10.24;100.00;96282.28;4997634;28;19917;-68
2023/05/15 05:32:34;;;;;;;;;;;;;;;10.22;100.00;96284.59;5004558;28;19970;-68
2023/05/15 05:34:59;;;;;;;;;;;;;;;10.24;100.00;96283.06;5009476;28;20091;-69
2023/05/15 05:37:25;;;;;;;;;;;;;;;10.24;100.00;96288.53;5003409;28;20004;-67
2023/05/15 05:39:50;;;;;;;;;;;;;;;10.43;100.00;96292.28;5003506;28;19921;-68
2023/05/15 05:42:15;;;;;;;;;;;;;;;10.65;100.00;96291.31;4998695;28;19932;-67
2023/05/15 05:44:41;;;;;;;;;;;;;;;10.78;100.00;96288.31;5003156;28;20378;-68
2023/05/15 05:47:06;;;;;;;;;;;;;;;10.92;100.00;96296.66;4999483;28;20369;-67
2023/05/15 05:49:31;;;;;;;;;;;;;;;10.99;100.00;96291.22;5005081;28;20322;-68
2023/05/15 05:52:03;;;;;;;;;;;;;;;11.05;100.00;96289.69;5004064;28;19917;-67
2023/05/15 05:54:28;;;;;;;;;;;;;;;11.05;100.00;96292.44;4999754;28;19918;-68
2023/05/15 05:56:53;;;;;;;;;;;;;;;11.07;100.00;96292.88;5004378;28;20007;-67
2023/05/15 05:59:19;;;;;;;;;;;;;;;11.09;100.00;96293.28;4999114;28;19932;-67
2023/05/15 06:01:45;;;;;;;;;;;;;;;11.12;100.00;96290.94;5003163;28;20406;-68
2023/05/15 06:04:10;;;;;;;;;;;;;;;11.18;100.00;96292.97;4999798;28;19948;-67
2023/05/15 06:06:35;;;;;;;;;;;;;;;11.25;100.00;96292.19;5003347;28;19921;-66
2023/05/15 06:09:01;;;;;;;;;;;;;;;11.25;100.00;96292.19;5019120;28;20290;-68
2023/05/15 06:11:26;;;;;;;;;;;;;;;11.29;100.00;96293.81;4998661;28;19917;-68
2023/05/15 06:13:51;;;;;;;;;;;;;;;11.20;100.00;96293.38;5004835;28;19925;-68
2023/05/15 06:16:17;;;;;;;;;;;;;;;11.13;100.00;96292.50;4999840;28;19918;-67
2023/05/15 06:18:42;;;;;;;;;;;;;;;11.13;100.00;96297.97;5026066;28;19917;-68
2023/05/15 06:21:07;;;;;;;;;;;;;;;11.24;100.00;96298.88;5004789;28;19918;-68
2023/05/15 06:23:32;;;;;;;;;;;;;;;11.21;100.00;96296.88;5009523;28;19987;-68
2023/05/15 06:25:58;;;;;;;;;;;;;;;11.38;100.00;96298.16;5017682;28;19922;-68
2023/05/15 06:28:23;;;;;;;;;;;;;;;11.26;100.00;96296.53;4998179;28;20550;-67
2023/05/15 06:30:48;;;;;;;;;;;;;;;11.35;100.00;96296.97;5018961;28;19964;-68
2023/05/15 06:33:14;;;;;;;;;;;;;;;11.49;100.00;96301.78;4998606;28;20329;-67
2023/05/15 06:35:39;;;;;;;;;;;;;;;11.62;100.00;96297.53;5002169;28;20418;-67
2023/05/15 06:38:04;;;;;;;;;;;;;;;11.77;100.00;96303.09;4998105;28;20300;-69
2023/05/15 06:40:30;;;;;;;;;;;;;;;11.69;100.00;96299.53;5000806;28;19972;-66
2023/05/15 06:42:55;;;;;;;;;;;;;;;11.68;100.00;96297.97;5003782;28;19932;-67
2023/05/15 06:45:20;;;;;;;;;;;;;;;11.61;100.00;96304.22;4998155;28;20558;-68
2023/05/15 06:47:46;;;;;;;;;;;;;;;11.51;100.00;96301.41;5005113;28;20017;-68
2023/05/15 06:50:11;;;;;;;;;;;;;;;11.66;100.00;96303.03;5001552;28;19929;-68
2023/05/15 06:52:36;;;;;;;;;;;;;;;11.62;100.00;96302.25;5006635;28;19921;-66
2023/05/15 06:55:02;;;;;;;;;;;;;;;11.58;100.00;96302.22;5002187;28;19922;-69
2023/05/15 06:57:27;;;;;;;;;;;;;;;11.71;100.00;96310.13;5002107;28;20015;-68
2023/05/15 06:59:52;;;;;;;;;;;;;;;11.60;100.00;96305.38;4997069;28;19980;-67
2023/05/15 07:02:18;;;;;;;;;;;;;;;11.63;100.00;96312.84;5000854;28;19924;-68
2023/05/15 07:04:43;;;;;;;;;;;;;;;11.61;100.00;96306.97;5011753;28;19922;-67
2023/05/15 07:07:08;;;;;;;;;;;;;;;11.76;100.00;96312.53;4999093;28;19918;-66
2023/05/15 07:09:34;;;;;;;;;;;;;;;11.83;100.00;96313.34;5005275;28;19918;-68
2023/05/15 07:11:59;;;;;;;;;;;;;;;11.85;100.00;96315.72;5005506;28;20420;-67
2023/05/15 07:14:25;;;;;;;;;;;;;;;11.80;100.00;96311.34;5000359;28;19921;-68
2023/05/15 07:16:50;;;;;;;;;;;;;;;11.74;100.00;96309.34;5009019;28;20282;-68
2023/05/15 07:19:19;;;;;;;;;;;;;;;11.86;100.00;96314.53;4999118;28;19968;-68
2023/05/15 07:21:45;;;;;;;;;;;;;;;11.79;100.00;96309.00;5006347;28;19976;-68
2023/05/15 07:24:10;;;;;;;;;;;;;;;11.82;100.00;96309.00;5015512;28;19921;-68
2023/05/15 07:26:35;;;;;;;;;;;;;;;11.79;100.00;96309.81;5022065;28;19929;-68
2023/05/15 07:29:01;;;;;;;;;;;;;;;11.53;100.00;96321.00;5004889;28;19925;-68
2023/05/15 07:31:26;;;;;;;;;;;;;;;11.68;100.00;96311.69;5000685;28;20040;-68
2023/05/15 07:33:51;;;;;;;;;;;;;;;11.89;100.00;96319.25;5005013;28;19921;-68
2023/05/15 07:36:16;;;;;;;;;;;;;;;12.08;100.00;96318.16;4998394;28;20294;-68
2023/05/15 07:38:41;;;;;;;;;;;;;;;12.22;100.00;96318.22;5003981;28;19936;-68
2023/05/15 07:41:07;;;;;;;;;;;;;;;12.62;100.00;96319.16;5000944;28;20016;-68
2023/05/15 07:43:33;;;;;;;;;;;;;;;12.99;100.00;96323.50;5003512;28;19924;-67
2023/05/15 07:45:58;;;;;;;;;;;;;;;13.19;100.00;96312.13;5005403;28;19928;-67
2023/05/15 07:48:23;;;;;;;;;;;;;;;13.36;100.00;96318.81;5001738;28;19921;-68
2023/05/15 07:50:51;;;;;;;;;;;;;;;13.51;100.00;96319.63;5004416;28;19972;-68
2023/05/15 07:53:16;;;;;;;;;;;;;;;13.48;100.00;96318.44;5001408;28;19921;-67
2023/05/15 07:55:42;;;;;;;;;;;;;;;13.36;100.00;96316.06;5003001;28;19918;-66
2023/05/15 07:58:08;;;;;;;;;;;;;;;13.61;100.00;96320.78;5000248;28;20422;-67
2023/05/15 08:00:33;;;;;;;;;;;;;;;13.81;100.00;96319.19;5003609;28;19949;-68
2023/05/15 08:02:59;;;;;;;;;;;;;;;13.61;100.00;96318.00;5004870;28;19968;-67
2023/05/15 08:05:24;;;;;;;;;;;;;;;13.52;100.00;96318.41;5001322;28;19968;-68
2023/05/15 08:07:50;;;;;;;;;;;;;;;13.45;100.00;96318.44;5005194;28;19925;-68
2023/05/15 08:10:15;;;;;;;;;;;;;;;13.10;100.00;96320.78;5000366;28;19925;-68
2023/05/15 08:12:45;;;;;;;;;;;;;;;12.88;100.00;96327.44;5004914;28;19921;-68
2023/05/15 08:15:10;;;;;;;;;;;;;;;12.86;100.00;96318.81;4998884;28;19928;-69
2023/05/15 08:17:36;;;;;;;;;;;;;;;12.65;100.00;96319.56;5003709;28;19922;-69
2023/05/15 08:20:01;;;;;;;;;;;;;;;12.49;100.00;96325.38;5004743;28;20402;-69
2023/05/15 08:22:29;;;;;;;;;;;;;;;12.34;100.00;96327.31;4998335;28;19947;-69
2023/05/15 08:24:54;;;;;;;;;;;;;;;12.51;100.00;96325.78;5002381;28;19921;-68
2023/05/15 08:27:19;;;;;;;;;;;;;;;12.57;100.00;96327.00;5000983;28;19944;-69
2023/05/15 08:29:45;;;;;;;;;;;;;;;12.49;100.00;96330.88;5012500;28;19917;-68
2023/05/15 08:32:12;;;;;;;;;;;;;;;12.22;100.00;96328.44;5000940;28;20293;-69
2023/05/15 08:34:40;;;;;;;;;;;;;;;12.36;100.00;96333.97;5003806;28;19932;-69
2023/05/15 08:37:06;;;;;;;;;;;;;;;12.51;100.00;96325.78;4998377;28;20128;-69
2023/05/15 08:39:31;;;;;;;;;;;;;;;12.50;100.00;96325.00;5004054;28;20426;-68
2023/05/15 08:42:04;;;;;;;;;;;;;;;12.53;100.00;96327.00;5002369;28;19928;-68
2023/05/15 08:44:29;;;;;;;;;;;;;;;12.51;100.00;96321.06;5002541;28;19917;-67
2023/05/15 08:46:58;;;;;;;;;;;;;;;12.63;100.00;96317.19;5004896;28;19932;-68
2023/05/15 08:49:42;;;;;;;;;;;;;;;12.64;100.00;96327.00;4999203;28;19925;-68
2023/05/15 08:52:08;;;;;;;;;;;;;;;12.54;100.00;96317.56;4999667;28;20295;-68
2023/05/15 08:54:34;;;;;;;;;;;;;;;12.68;100.00;96318.78;5003283;28;19929;-67
2023/05/15 08:57:01;;;;;;;;;;;;;;;12.69;100.00;96321.09;5002671;28;19928;-68
2023/05/15 08:59:26;;;;;;;;;;;;;;;12.53;100.00;96318.75;4998821;28;19917;-67
2023/05/15 09:01:52;;;;;;;;;;;;;;;12.62;100.00;96319.16;5003548;28;19917;-67
2023/05/15 09:04:18;;;;;;;;;;;;;;;12.76;100.00;96321.13;5000097;28;19918;-68
2023/05/15 09:06:45;;;;;;;;;;;;;;;12.90;100.00;96325.09;5017955;28;20413;-68
2023/05/15 09:09:12;;;;;;;;;;;;;;;12.62;100.00;96327.41;4990243;28;19922;-67
2023/05/15 09:11:40;;;;;;;;;;;;;;;12.27;100.00;96325.31;5000950;28;19921;-67
2023/05/15 09:14:08;;;;;;;;;;;;;;;12.64;100.00;96324.25;5010000;28;19940;-67
2023/05/15 09:16:33;;;;;;;;;;;;;;;12.65;100.00;96316.81;4989011;28;19925;-68
2023/05/15 09:18:59;;;;;;;;;;;;;;;12.48;100.00;96321.06;5003874;28;20401;-66
2023/05/15 09:21:25;;;;;;;;;;;;;;;12.33;100.00;96315.53;4996911;28;19935;-67
2023/05/15 09:23:51;;;;;;;;;;;;;;;12.30;100.00;96313.56;5000985;28;20072;-67
2023/05/15 09:26:16;;;;;;;;;;;;;;;12.41;100.00;96310.84;4998764;28;19956;-67
2023/05/15 09:28:42;;;;;;;;;;;;;;;12.54;100.00;96309.31;5004308;28;19933;-69
2023/05/15 09:31:08;;;;;;;;;;;;;;;12.62;100.00;96313.66;4998550;28;19918;-68
2023/05/15 09:33:41;;;;;;;;;;;;;;;12.67;100.00;96319.94;5003862;28;19917;-68
2023/05/15 09:36:07;;;;;;;;;;;;;;;12.96;100.00;96315.25;5007464;28;19928;-68
2023/05/15 09:38:33;;;;;;;;;;;;;;;13.10;100.00;96309.78;5019953;28;19921;-67
2023/05/15 09:41:03;;;;;;;;;;;;;;;13.26;100.00;96308.59;5004207;28;20044;-66
2023/05/15 09:43:32;;;;;;;;;;;;;;;13.54;100.00;96310.56;4998136;28;19971;-68
2023/05/15 09:45:57;;;;;;;;;;;;;;;13.59;100.00;96301.91;5002766;28;20334;-66
2023/05/15 09:48:22;;;;;;;;;;;;;;;13.79;100.00;96299.50;4996214;28;19918;-67
2023/05/15 09:50:48;;;;;;;;;;;;;;;13.85;100.00;96299.91;5003410;28;20383;-68
2023/05/15 09:53:13;;;;;;;;;;;;;;;13.97;100.00;96299.44;4997411;28;20278;-68
2023/05/15 09:55:40;;;;;;;;;;;;;;;13.98;100.00;96298.25;5001733;28;19918;-68
2023/05/15 09:58:06;;;;;;;;;;;;;;;14.12;100.00;96298.22;4998024;28;19997;-67
2023/05/15 10:00:32;;;;;;;;;;;;;;;14.74;100.00;96290.44;5002434;28;19921;-67
2023/05/15 10:02:59;;;;;;;;;;;;;;;15.82;100.00;96295.06;5003519;28;19944;-67
2023/05/15 10:05:28;;;;;;;;;;;;;;;16.48;98.13;96293.88;4995770;28;20080;-68
2023/05/15 10:07:54;;;;;;;;;;;;;;;16.46;100.00;96292.72;5004199;28;19929;-67
2023/05/15 10:10:20;;;;;;;;;;;;;;;16.41;98.36;96296.75;4997547;28;19917;-66
2023/05/15 10:12:46;;;;;;;;;;;;;;;16.44;99.79;96291.16;5003914;28;19964;-66
2023/05/15 10:15:12;;;;;;;;;;;;;;;16.36;100.00;96283.38;5000418;28;19918;-66
2023/05/15 10:17:38;;;;;;;;;;;;;;;16.31;98.68;96284.59;4999286;28;20387;-68
2023/05/15 10:20:05;;;;;;;;;;;;;;;16.08;99.26;96284.50;4998651;28;19941;-67
2023/05/15 10:22:34;;;;;;;;;;;;;;;16.14;94.95;96283.66;5010443;28;20041;-67
2023/05/15 10:25:02;;;;;;;;;;;;;;;15.36;100.00;96287.97;5014573;28;20173;-67
2023/05/15 10:27:29;;;;;;;;;;;;;;;16.09;96.42;96280.56;5012367;28;20409;-67
2023/05/15 10:29:55;;;;;;;;;;;;;;;16.84;92.53;96271.28;5010225;28;19984;-68
2023/05/15 10:32:20;;;;;;;;;;;;;;;17.12;88.66;96269.25;5004101;28;19963;-68
2023/05/15 10:34:47;;;;;;;;;;;;;;;17.08;87.82;96274.84;5009543;28;19918;-65
2023/05/15 10:37:13;;;;;;;;;;;;;;;17.88;81.65;96277.84;5001547;28;19977;-67
2023/05/15 10:39:39;;;;;;;;;;;;;;;18.31;77.34;96282.53;5006035;28;20326;-67
2023/05/15 10:42:06;;;;;;;;;;;;;;;18.54;73.87;96284.38;5021166;28;19925;-68
2023/05/15 10:44:32;;;;;;;;;;;;;;;18.85;69.83;96281.38;5018453;28;19918;-68
2023/05/15 10:46:57;;;;;;;;;;;;;;;18.23;75.53;96278.31;5008457;28;19925;-68
2023/05/15 10:49:22;;;;;;;;;;;;;;;17.41;79.78;96264.00;5003166;28;20380;-67
2023/05/15 10:51:48;;;;;;;;;;;;;;;16.40;85.39;96271.09;5008220;28;19955;-68
2023/05/15 10:54:13;;;;;;;;;;;;;;;16.15;85.74;96267.84;5003670;28;19918;-68
2023/05/15 10:56:40;;;;;;;;;;;;;;;16.24;89.03;96274.44;5006356;28;20370;-67
2023/05/15 10:59:07;;;;;;;;;;;;;;;16.15;86.49;96270.59;5003551;28;19976;-68
2023/05/15 11:01:39;;;;;;;;;;;;;;;16.14;87.65;96264.31;5006568;28;19917;-67
2023/05/15 11:04:10;;;;;;;;;;;;;;;16.07;85.78;96264.41;5004135;28;19928;-68
2023/05/15 11:06:36;;;;;;;;;;;;;;;15.75;88.37;96259.25;5016195;28;19926;-66
2023/05/15 11:09:20;;;;;;;;;;;;;;;16.31;87.39;96258.97;5008215;28;20332;-67
2023/05/15 11:11:51;;;;;;;;;;;;;;;16.62;83.17;96257.75;5006615;28;19918;-68
2023/05/15 11:14:27;;;;;;;;;;;;;;;16.80;77.00;96259.47;4999860;28;19968;-68
2023/05/15 11:16:52;;;;;;;;;;;;;;;16.75;80.19;96257.94;5004275;28;19924;-68
2023/05/15 11:19:30;;;;;;;;;;;;;;;16.72;80.98;96256.00;5003249;28;19918;-65
2023/05/15 11:21:59;;;;;;;;;;;;;;;16.57;84.14;96243.59;5008239;28;20012;-68
2023/05/15 11:24:31;;;;;;;;;;;;;;;17.16;80.56;96247.84;5002256;28;19929;-68
2023/05/15 11:27:00;;;;;;;;;;;;;;;16.85;79.57;96245.16;5007689;28;19935;-67
2023/05/15 11:29:26;;;;;;;;;;;;;;;17.32;76.13;96236.91;5001901;28;19964;-66
2023/05/15 11:31:51;;;;;;;;;;;;;;;16.96;79.11;96239.47;5006605;28;19922;-67
2023/05/15 11:34:28;;;;;;;;;;;;;;;17.29;78.63;96240.50;5000850;28;19940;-67
2023/05/15 11:36:53;;;;;;;;;;;;;;;17.17;73.87;96243.88;5007188;28;19924;-68
2023/05/15 11:39:22;;;;;;;;;;;;;;;17.52;78.57;96239.72;5001998;28;19918;-67
2023/05/15 11:41:47;;;;;;;;;;;;;;;18.04;75.65;96241.13;5005781;28;20374;-67
2023/05/15 11:44:17;;;;;;;;;;;;;;;18.04;68.85;96235.56;5000070;28;19933;-67
2023/05/15 11:46:43;;;;;;;;;;;;;;;18.01;71.24;96230.88;5005796;28;19926;-68
2023/05/15 11:49:09;;;;;;;;;;;;;;;18.17;67.92;96235.69;4999706;28;19923;-67
2023/05/15 11:51:41;;;;;;;;;;;;;;;18.10;65.77;96235.84;5005534;28;19918;-67
2023/05/15 11:54:09;;;;;;;;;;;;;;;18.86;63.97;96232.22;5001318;28;19917;-68
2023/05/15 11:56:34;;;;;;;;;;;;;;;18.64;64.34;96229.13;5005298;28;20378;-67
2023/05/15 11:59:02;;;;;;;;;;;;;;;18.66;63.45;96230.25;5003908;28;19917;-67
2023/05/15 12:01:37;;;;;;;;;;;;;;;18.54;62.88;96228.16;5016834;28;20359;-68
2023/05/15 12:04:10;;;;;;;;;;;;;;;18.59;62.68;96235.19;5003549;28;19924;-67
2023/05/15 12:06:35;;;;;;;;;;;;;;;17.93;63.31;96226.69;5004916;28;19928;-66
2023/05/15 12:09:01;;;;;;;;;;;;;;;17.64;66.67;96232.75;5018176;28;19922;-67
2023/05/15 12:11:26;;;;;;;;;;;;;;;17.28;64.44;96232.63;5015027;28;19960;-67
2023/05/15 12:13:52;;;;;;;;;;;;;;;17.41;67.21;96224.47;5011470;28;19956;-66
2023/05/15 12:16:21;;;;;;;;;;;;;;;17.34;68.30;96220.66;4998805;28;19929;-67
2023/05/15 12:18:47;;;;;;;;;;;;;;;17.44;65.61;96223.66;5004305;28;20366;-66
2023/05/15 12:21:12;;;;;;;;;;;;;;;17.77;65.87;96214.31;5000800;28;19917;-67
2023/05/15 12:23:38;;;;;;;;;;;;;;;17.92;65.44;96217.59;5004901;28;20274;-67
2023/05/15 12:26:03;;;;;;;;;;;;;;;18.09;65.53;96223.97;4999429;28;19953;-67
2023/05/15 12:28:29;;;;;;;;;;;;;;;18.15;63.31;96216.72;5002491;28;19961;-67
2023/05/15 12:30:55;;;;;;;;;;;;;;;18.59;62.54;96230.41;5002637;28;20012;-66
2023/05/15 12:33:20;;;;;;;;;;;;;;;18.28;62.20;96222.38;5000028;28;20445;-68
2023/05/15 12:35:50;;;;;;;;;;;;;;;18.38;63.92;96219.81;5004085;28;19921;-67
2023/05/15 12:38:16;;;;;;;;;;;;;;;18.92;61.06;96227.69;4999052;28;19960;-67